Terminal Aerodrome Forecast
Issued by NWS

Home | Current Version | Previous Version | Text Only | Print | Product List | Glossary On
Versions: 1 2 3 4 5 6 7 8 9 10 11 12 13 14 15
000
FTUS45 KABQ 190500
TAFSAF
TAF
KSAF 190527Z 1906/2006 15015KT P6SM SKC
     FM190900 18005KT P6SM SCT025 BKN060
     FM191100 36010KT P6SM SCT025 BKN060
     FM191900 30010KT P6SM BKN100
     FM192300 33010KT P6SM VCSH BKN100
     FM200300 09010KT P6SM SCT100=

USA.gov is the U.S. government's official web portal to all federal, state and local government web resources and services.